CWCA

Cartwright Airport

Cartwright, Canada
METAR CWCA 200600Z 24008KT 15SM SKC M21/M25 A2960 RMK SLP026
Observed Flight Rules
Jan-20 @ 06:00 UTC (an hour ago) Visual Flight Rules
Wind Visibility Clouds
240° at 8 knots 15 miles
  • Clear skies
Temperatures Readings
Current -21°C / -6°F
Dewpoint -25°C / -13°F
Humidity 70%
Altimeter 29.6" Hg
Pressure 1002.6 hPa
Elevation 14
METAR CWCA 200600Z 24008KT 15SM SKC M21/M25 A2960 RMK SLP026
Observed Flight Rules
Jan-20 @ 06:00 UTC
(an hour ago)
VFR
Wind Visibility
240° at 8 knots 15 miles
Clouds
  • Clear skies
Temperature Dewpoint
-21°C / -6°F -25°C / -13°F
Humidity Altimeter Pressure
70% 29.6" Hg 1002.6 hPa